Time;durP1;ratioP1;P1;durP2;ratioP2;P2;SDS_P1;SDS_P2;PMS_P1;PMS_P2;Temp;Humidity;BMP_temperature;BMP_pressure;BME280_temperature;BME280_humidity;BME280_pressure;Samples;Min_cycle;Max_cycle;Signal;HPM_P1;HPM_P2
2022/10/24 00:02:21;;;;;;;21.73;14.35;;;;;;;11.71;75.53;98474.78;5062218;28;20070;-70
2022/10/24 00:04:47;;;;;;;22.83;14.43;;;;;;;11.75;75.51;98482.13;5059356;28;20028;-69
2022/10/24 00:07:12;;;;;;;22.73;15.27;;;;;;;11.79;75.81;98470.53;5055514;28;20028;-70
2022/10/24 00:09:38;;;;;;;22.83;15.13;;;;;;;11.83;75.62;98471.50;5060200;28;20047;-70
2022/10/24 00:12:04;;;;;;;26.70;16.17;;;;;;;11.87;75.69;98476.13;5063378;28;20021;-70
2022/10/24 00:14:30;;;;;;;25.42;15.98;;;;;;;11.90;75.64;98466.44;5048447;28;20032;-70
2022/10/24 00:16:55;;;;;;;25.38;16.83;;;;;;;11.90;75.38;98463.69;5051653;28;20012;-69
2022/10/24 00:19:21;;;;;;;23.33;15.88;;;;;;;11.93;75.48;98487.00;5068948;28;20418;-69
2022/10/24 00:21:47;;;;;;;28.90;17.35;;;;;;;11.90;75.91;98492.00;5064321;28;20104;-69
2022/10/24 00:24:12;;;;;;;23.83;16.27;;;;;;;11.89;75.71;98482.13;5058757;28;20103;-70
2022/10/24 00:26:38;;;;;;;20.83;14.65;;;;;;;11.89;75.59;98478.53;5059844;28;20474;-70
2022/10/24 00:29:04;;;;;;;18.33;13.25;;;;;;;11.89;75.43;98484.03;5063315;28;20033;-69
2022/10/24 00:31:30;;;;;;;20.40;13.90;;;;;;;11.89;75.96;98484.03;5066111;28;20028;-70
2022/10/24 00:33:56;;;;;;;20.63;13.23;;;;;;;11.89;75.61;98484.03;5063053;28;20021;-70
2022/10/24 00:36:23;;;;;;;20.27;13.95;;;;;;;11.90;75.96;98486.50;5064716;28;20118;-69
2022/10/24 00:38:50;;;;;;;20.55;13.80;;;;;;;11.95;75.99;98482.03;5058485;28;20422;-69
2022/10/24 00:41:33;;;;;;;18.10;13.35;;;;;;;11.98;76.25;98479.47;5059215;28;20248;-70
2022/10/24 00:44:19;;;;;;;20.65;14.73;;;;;;;12.01;76.44;98489.09;5061724;28;20033;-70
2022/10/24 00:47:01;;;;;;;20.60;14.20;;;;;;;12.00;76.34;98487.47;5058225;28;20032;-69
2022/10/24 00:49:46;;;;;;;19.85;13.85;;;;;;;12.00;75.85;98488.25;5062816;28;20490;-69
2022/10/24 00:52:14;;;;;;;19.83;13.85;;;;;;;12.03;76.58;98484.91;5065702;28;20028;-70
2022/10/24 00:54:40;;;;;;;19.60;13.48;;;;;;;12.04;76.25;98486.53;5062885;28;20075;-69
2022/10/24 00:57:30;;;;;;;22.08;14.45;;;;;;;12.06;76.11;98475.22;5063364;28;20029;-70
2022/10/24 01:00:06;;;;;;;18.83;13.02;;;;;;;12.11;76.08;98471.56;5065448;28;20363;-69
2022/10/24 01:02:32;;;;;;;20.58;13.57;;;;;;;12.14;76.15;98469.00;5060148;28;20037;-69
2022/10/24 01:04:57;;;;;;;20.00;13.77;;;;;;;12.17;76.38;98462.09;5062114;28;20025;-70
2022/10/24 01:07:46;;;;;;;23.98;14.00;;;;;;;12.19;76.51;98473.63;5047438;28;20025;-69
2022/10/24 01:10:29;;;;;;;20.77;14.77;;;;;;;12.14;76.15;98479.22;5060218;28;20059;-69
2022/10/24 01:13:25;;;;;;;20.05;13.80;;;;;;;12.10;76.54;98468.00;5062184;28;20051;-70
2022/10/24 01:16:16;;;;;;;19.75;12.70;;;;;;;12.09;76.08;98460.06;5068312;28;20036;-70
2022/10/24 01:18:48;;;;;;;18.08;12.15;;;;;;;12.12;76.07;98443.75;5065141;28;20024;-70
2022/10/24 01:21:27;;;;;;;17.35;11.70;;;;;;;12.15;75.98;98459.66;5061548;28;20025;-70
2022/10/24 01:24:06;;;;;;;22.30;14.93;;;;;;;12.16;76.16;98463.22;5065823;28;20032;-70
2022/10/24 01:26:47;;;;;;;22.80;14.98;;;;;;;12.13;76.09;98450.09;5056307;28;20081;-70
2022/10/24 01:30:02;;;;;;;23.95;13.75;;;;;;;12.10;76.41;98439.72;5060787;28;20063;-70
2022/10/24 01:32:34;;;;;;;18.10;12.38;;;;;;;12.12;76.39;98448.47;5021365;28;20494;-69
2022/10/24 01:35:39;;;;;;;17.98;12.95;;;;;;;12.11;76.32;98457.81;5066204;28;20028;-70
2022/10/24 01:38:10;;;;;;;18.13;13.68;;;;;;;12.11;76.12;98457.81;5065036;28;20048;-70
2022/10/24 01:40:45;;;;;;;17.42;12.85;;;;;;;12.10;76.44;98448.75;5061867;28;20076;-70
2022/10/24 01:43:15;;;;;;;19.48;13.57;;;;;;;12.11;75.84;98452.31;5054608;28;20028;-69
2022/10/24 01:45:47;;;;;;;21.50;14.57;;;;;;;12.13;76.30;98448.13;5057249;28;20055;-70
2022/10/24 01:48:18;;;;;;;19.35;14.38;;;;;;;12.16;76.60;98453.03;5059146;28;20085;-69
2022/10/24 01:50:48;;;;;;;18.17;13.45;;;;;;;12.18;76.59;98469.22;5044471;28;20028;-70
2022/10/24 01:53:14;;;;;;;19.00;14.13;;;;;;;12.20;76.57;98473.28;5066431;28;20481;-70
2022/10/24 01:55:39;;;;;;;20.52;14.00;;;;;;;12.24;76.09;98475.44;5063820;28;20032;-70
2022/10/24 01:58:06;;;;;;;20.15;13.10;;;;;;;12.26;76.33;98471.25;5050905;28;20032;-69
2022/10/24 02:00:32;;;;;;;18.95;12.55;;;;;;;12.28;76.51;98469.00;5056438;28;20056;-70
2022/10/24 02:03:20;;;;;;;17.33;12.30;;;;;;;12.30;76.07;98463.22;5057073;28;20474;-70
2022/10/24 02:05:51;;;;;;;20.35;14.70;;;;;;;12.30;76.57;98471.47;5061371;28;20037;-69
2022/10/24 02:08:24;;;;;;;21.92;14.88;;;;;;;12.31;75.88;98459.34;5066711;28;20027;-70
2022/10/24 02:10:53;;;;;;;19.40;14.23;;;;;;;12.31;76.41;98467.59;5070446;28;20036;-70
2022/10/24 02:13:31;;;;;;;;;;;;;;;12.33;76.13;98465.34;5055847;28;20028;-70
2022/10/24 02:15:58;;;;;;;19.55;13.27;;;;;;;12.35;76.04;98460.34;5056962;28;19912;-68
2022/10/24 02:18:25;;;;;;;19.55;13.32;;;;;;;12.35;76.53;98461.16;5059788;28;20040;-68
2022/10/24 02:21:05;;;;;;;19.25;13.35;;;;;;;12.38;76.44;98458.91;5062373;28;20040;-68
2022/10/24 02:23:44;;;;;;;17.55;13.45;;;;;;;12.40;76.59;98448.41;5067146;28;20029;-68
2022/10/24 02:26:22;;;;;;;17.52;12.38;;;;;;;12.43;76.32;98461.56;5070192;28;20048;-69
2022/10/24 02:28:51;;;;;;;16.60;11.57;;;;;;;12.45;76.24;98454.59;5065624;28;20025;-71
2022/10/24 02:31:22;;;;;;;17.17;12.40;;;;;;;12.47;76.59;98454.31;5055989;28;20025;-69
2022/10/24 02:33:50;;;;;;;16.08;11.25;;;;;;;12.51;76.32;98450.63;5058293;28;20064;-69
2022/10/24 02:36:20;;;;;;;14.70;11.20;;;;;;;12.57;76.74;98456.00;5044298;28;20037;-71
2022/10/24 02:38:49;;;;;;;15.68;12.00;;;;;;;12.57;76.75;98454.09;5066214;28;20103;-68
2022/10/24 02:41:20;;;;;;;18.92;13.48;;;;;;;12.60;76.63;98458.16;5069221;28;20036;-69
2022/10/24 02:43:49;;;;;;;17.77;13.32;;;;;;;12.61;76.28;98454.28;5050284;28;20107;-70
2022/10/24 02:46:15;;;;;;;19.50;13.90;;;;;;;12.62;76.78;98467.75;5069922;28;20384;-70
2022/10/24 02:48:49;;;;;;;16.55;11.90;;;;;;;12.62;76.46;98458.66;5061515;28;20158;-70
2022/10/24 02:51:16;;;;;;;16.65;11.68;;;;;;;12.62;76.63;98453.16;5060940;28;20036;-70
2022/10/24 02:53:42;;;;;;;21.23;13.18;;;;;;;12.60;76.46;98455.41;5064000;28;20359;-70
2022/10/24 02:56:08;;;;;;;20.90;14.65;;;;;;;12.61;76.89;98468.03;5068761;28;20077;-69
2022/10/24 02:58:33;;;;;;;17.70;13.18;;;;;;;12.60;76.91;98463.66;5067452;28;20077;-69
2022/10/24 03:00:58;;;;;;;19.08;12.68;;;;;;;12.60;76.78;98461.72;5065558;28;20032;-70
2022/10/24 03:03:24;;;;;;;17.63;12.43;;;;;;;12.61;76.65;98463.34;5068254;28;20025;-69
2022/10/24 03:05:49;;;;;;;15.45;11.27;;;;;;;12.63;76.55;98466.59;5046438;28;20493;-70
2022/10/24 03:08:14;;;;;;;17.35;11.55;;;;;;;12.63;76.98;98452.81;5062783;28;20024;-70
2022/10/24 03:10:40;;;;;;;15.15;11.90;;;;;;;12.61;76.67;98457.84;5065027;28;20028;-69
2022/10/24 03:13:05;;;;;;;16.95;11.68;;;;;;;12.62;76.63;98455.91;5068863;28;20012;-69
2022/10/24 03:15:31;;;;;;;17.67;12.63;;;;;;;12.62;76.60;98451.22;5060426;28;20020;-69
2022/10/24 03:17:57;;;;;;;19.58;13.10;;;;;;;12.60;76.67;98449.91;5062967;28;20402;-69
2022/10/24 03:20:23;;;;;;;19.27;13.07;;;;;;;12.60;76.90;98453.47;5067651;28;20064;-69
2022/10/24 03:22:49;;;;;;;16.70;11.93;;;;;;;12.58;76.73;98438.38;5066608;28;20027;-69
2022/10/24 03:25:14;;;;;;;17.48;12.50;;;;;;;12.56;76.98;98432.38;5064891;28;20020;-69
2022/10/24 03:27:40;;;;;;;17.95;11.95;;;;;;;12.55;77.16;98422.50;5067441;28;20054;-69
2022/10/24 03:30:06;;;;;;;15.65;11.70;;;;;;;12.52;76.84;98426.69;5063758;28;20039;-69
2022/10/24 03:32:33;;;;;;;15.88;12.15;;;;;;;12.51;76.75;98422.31;5061120;28;20135;-70
2022/10/24 03:34:58;;;;;;;18.80;12.85;;;;;;;12.48;76.93;98429.22;5063992;28;20036;-69
2022/10/24 03:37:24;;;;;;;18.35;13.48;;;;;;;12.44;77.09;98414.47;5066882;28;20035;-69
2022/10/24 03:39:50;;;;;;;18.42;12.25;;;;;;;12.43;76.97;98396.34;5067919;28;20155;-70
2022/10/24 03:42:15;;;;;;;17.70;12.88;;;;;;;12.45;77.31;98418.03;5066497;28;20024;-69
2022/10/24 03:44:40;;;;;;;20.42;13.18;;;;;;;12.43;77.53;98412.03;5064362;28;20494;-69
2022/10/24 03:47:06;;;;;;;18.35;12.85;;;;;;;12.41;77.60;98412.38;5056225;28;20029;-70
2022/10/24 03:49:31;;;;;;;16.85;11.20;;;;;;;12.42;77.85;98418.66;5059399;28;20076;-70
2022/10/24 03:51:57;;;;;;;16.80;11.45;;;;;;;12.41;77.46;98428.03;5044597;28;20056;-69
2022/10/24 03:54:22;;;;;;;16.55;11.55;;;;;;;12.41;78.00;98437.13;5064420;28;20123;-69
2022/10/24 03:56:48;;;;;;;13.95;9.43;;;;;;;12.46;78.13;98436.19;5068334;28;20055;-69
2022/10/24 03:59:14;;;;;;;16.85;10.88;;;;;;;12.47;78.29;98432.31;5067903;28;20025;-70
2022/10/24 04:01:39;;;;;;;19.23;13.20;;;;;;;12.47;78.14;98411.09;5054329;28;20037;-70
2022/10/24 04:04:05;;;;;;;14.18;10.40;;;;;;;12.49;78.23;98430.06;5055691;28;20482;-69
2022/10/24 04:06:30;;;;;;;14.10;9.48;;;;;;;12.51;78.63;98425.06;5068972;28;20544;-70
2022/10/24 04:08:56;;;;;;;12.73;8.65;;;;;;;12.54;78.75;98423.63;5068046;28;20043;-70
2022/10/24 04:11:22;;;;;;;12.65;9.10;;;;;;;12.58;78.76;98428.22;5064019;28;20096;-70
2022/10/24 04:13:48;;;;;;;14.32;9.23;;;;;;;12.62;78.78;98431.97;5071192;28;20102;-69
2022/10/24 04:16:13;;;;;;;14.20;9.02;;;;;;;12.67;78.96;98439.28;5065988;28;20056;-69
2022/10/24 04:18:39;;;;;;;12.30;8.82;;;;;;;12.70;78.85;98419.41;5052574;28;20028;-69
2022/10/24 04:21:04;;;;;;;13.27;8.57;;;;;;;12.75;78.92;98421.22;5057568;28;20029;-69
2022/10/24 04:23:34;;;;;;;14.23;9.00;;;;;;;12.77;78.77;98422.53;5058614;28;20025;-70
2022/10/24 04:26:00;;;;;;;18.48;10.88;;;;;;;12.83;78.98;98414.97;5060871;28;20025;-70
2022/10/24 04:28:26;;;;;;;13.32;8.70;;;;;;;12.87;78.99;98426.16;5062510;28;20046;-70
2022/10/24 04:30:55;;;;;;;10.50;7.22;;;;;;;12.91;78.91;98419.72;5068398;28;20020;-70
2022/10/24 04:33:22;;;;;;;10.82;7.00;;;;;;;12.96;79.19;98427.03;5062477;28;20037;-70
2022/10/24 04:35:48;;;;;;;9.98;6.75;;;;;;;13.00;79.02;98428.03;5070147;28;20036;-69
2022/10/24 04:38:13;;;;;;;12.73;8.65;;;;;;;13.04;79.14;98415.28;5052455;28;20046;-70
2022/10/24 04:40:39;;;;;;;12.98;8.27;;;;;;;13.10;79.18;98419.53;5069583;28;20029;-70
2022/10/24 04:43:04;;;;;;;16.70;10.50;;;;;;;13.15;78.92;98415.03;5076912;28;20474;-70
2022/10/24 04:45:29;;;;;;;17.50;12.30;;;;;;;13.18;79.17;98420.69;5067493;28;20030;-70
2022/10/24 04:47:55;;;;;;;13.25;9.57;;;;;;;13.22;78.99;98412.63;5068786;28;20497;-70
2022/10/24 04:50:20;;;;;;;14.25;10.18;;;;;;;13.25;79.01;98403.72;5067117;28;20506;-70
2022/10/24 04:52:45;;;;;;;13.63;8.65;;;;;;;13.29;79.08;98403.91;5064773;28;20033;-71
2022/10/24 04:55:11;;;;;;;11.13;8.70;;;;;;;13.30;79.04;98406.34;5052135;28;20036;-72
2022/10/24 04:57:36;;;;;;;12.45;8.75;;;;;;;13.31;78.66;98412.69;5064433;28;20119;-71
2022/10/24 05:00:04;;;;;;;14.18;9.40;;;;;;;13.35;78.89;98406.22;5068333;28;20035;-71
2022/10/24 05:02:29;;;;;;;14.40;9.40;;;;;;;13.37;78.52;98409.47;5080158;28;20497;-71
2022/10/24 05:04:54;;;;;;;11.52;8.35;;;;;;;13.40;78.74;98408.03;5069649;28;20104;-71
2022/10/24 05:07:20;;;;;;;11.40;8.93;;;;;;;13.41;78.75;98393.16;5047412;28;20021;-71
2022/10/24 05:09:46;;;;;;;12.18;8.30;;;;;;;13.40;78.53;98389.56;5077963;28;20060;-71
2022/10/24 05:12:12;;;;;;;11.77;8.90;;;;;;;13.40;78.94;98391.50;5066054;28;20047;-71
2022/10/24 05:14:37;;;;;;;11.23;8.10;;;;;;;13.42;78.59;98385.69;5060318;28;20123;-71
2022/10/24 05:17:03;;;;;;;15.13;8.57;;;;;;;13.41;78.85;98393.16;5087156;28;20856;-71
2022/10/24 05:19:28;;;;;;;14.27;8.35;;;;;;;13.43;78.80;98395.59;5068203;28;20028;-70
2022/10/24 05:21:54;;;;;;;16.63;8.52;;;;;;;13.44;78.82;98395.28;5069491;28;20060;-71
2022/10/24 05:24:19;;;;;;;15.52;10.23;;;;;;;13.45;78.95;98390.59;5065859;28;20482;-71
2022/10/24 05:26:44;;;;;;;13.63;8.93;;;;;;;13.45;78.82;98398.84;5069826;28;20031;-71
2022/10/24 05:29:10;;;;;;;17.50;8.50;;;;;;;13.48;79.31;98412.78;5053950;28;20112;-71
2022/10/24 05:31:35;;;;;;;8.70;6.90;;;;;;;13.48;79.04;98426.56;5073586;28;20103;-71
2022/10/24 05:34:00;;;;;;;9.02;6.57;;;;;;;13.48;78.91;98431.28;5068756;28;20016;-71
2022/10/24 05:36:26;;;;;;;10.98;7.30;;;;;;;13.50;79.03;98440.84;5061689;28;20111;-71
2022/10/24 05:38:51;;;;;;;12.10;6.63;;;;;;;13.50;79.11;98446.34;5072186;28;20031;-71
2022/10/24 05:41:17;;;;;;;12.52;8.15;;;;;;;13.52;79.30;98435.03;5089298;28;20039;-70
2022/10/24 05:43:42;;;;;;;14.27;9.43;;;;;;;13.51;79.52;98444.41;5076127;28;20028;-71
2022/10/24 05:46:09;;;;;;;12.70;8.02;;;;;;;13.50;79.16;98442.78;5063811;28;20107;-71
2022/10/24 05:48:35;;;;;;;17.60;10.02;;;;;;;13.52;79.63;98449.59;5074359;28;20037;-72
2022/10/24 05:51:00;;;;;;;14.25;8.77;;;;;;;13.52;79.35;98446.03;5071564;28;20170;-71
2022/10/24 05:53:26;;;;;;;16.33;8.40;;;;;;;13.55;80.15;98445.41;5055003;28;20131;-68
2022/10/24 05:55:51;;;;;;;14.57;8.75;;;;;;;13.54;79.87;98463.06;5070696;28;20450;-68
2022/10/24 05:58:20;;;;;;;14.85;8.52;;;;;;;13.54;80.02;98463.06;5086784;28;20027;-69
2022/10/24 06:00:46;;;;;;;10.80;7.80;;;;;;;13.55;79.89;98461.94;5079114;28;20043;-70
2022/10/24 06:03:12;;;;;;;11.95;8.43;;;;;;;13.54;79.72;98466.63;5070828;28;20081;-70
2022/10/24 06:05:37;;;;;;;13.93;9.25;;;;;;;13.56;80.40;98463.56;5075959;28;20040;-69
2022/10/24 06:08:02;;;;;;;13.40;8.68;;;;;;;13.54;80.40;98465.84;5078972;28;20036;-70
2022/10/24 06:10:28;;;;;;;11.43;7.93;;;;;;;13.55;80.37;98470.22;5077910;28;20168;-70
2022/10/24 06:12:53;;;;;;;13.32;7.82;;;;;;;13.57;80.63;98467.97;5071767;28;20039;-70
2022/10/24 06:15:19;;;;;;;11.80;7.85;;;;;;;13.57;80.43;98467.13;5089725;28;20034;-69
2022/10/24 06:17:44;;;;;;;13.48;8.38;;;;;;;13.59;81.19;98462.94;5091779;28;20027;-69
2022/10/24 06:20:10;;;;;;;12.93;8.77;;;;;;;13.58;81.06;98466.84;5075231;28;20025;-69
2022/10/24 06:22:35;;;;;;;12.85;9.00;;;;;;;13.58;80.76;98453.06;5071604;28;20020;-68
2022/10/24 06:25:01;;;;;;;13.85;8.43;;;;;;;13.59;80.62;98443.66;5085225;28;20026;-69
2022/10/24 06:27:26;;;;;;;14.20;9.55;;;;;;;13.62;81.14;98464.25;5072531;28;20020;-69
2022/10/24 06:29:51;;;;;;;12.40;8.85;;;;;;;13.63;80.51;98460.34;5067343;28;20386;-68
2022/10/24 06:32:17;;;;;;;18.55;10.18;;;;;;;13.66;80.88;98449.50;5071457;28;20049;-68
2022/10/24 06:34:42;;;;;;;12.98;8.50;;;;;;;13.67;80.64;98458.59;5070179;28;20521;-69
2022/10/24 06:37:08;;;;;;;12.93;9.32;;;;;;;13.72;81.12;98465.91;5076531;28;20025;-69
2022/10/24 06:39:33;;;;;;;13.73;9.10;;;;;;;13.73;81.08;98482.16;5069742;28;20047;-69
2022/10/24 06:42:00;;;;;;;14.10;9.88;;;;;;;13.75;81.17;98470.78;5066768;28;20616;-69
2022/10/24 06:44:26;;;;;;;14.85;9.80;;;;;;;13.78;80.91;98465.47;5074102;28;20115;-72
2022/10/24 06:46:52;;;;;;;12.55;9.38;;;;;;;13.81;80.99;98464.00;5070734;28;20446;-69
2022/10/24 06:49:17;;;;;;;15.32;9.45;;;;;;;13.83;80.80;98468.09;5076150;28;20021;-70
2022/10/24 06:51:42;;;;;;;15.75;10.88;;;;;;;13.86;81.44;98479.63;5078705;28;20025;-69
2022/10/24 06:54:08;;;;;;;16.27;9.88;;;;;;;13.86;81.10;98472.16;5071836;28;20048;-70
2022/10/24 06:56:33;;;;;;;16.20;10.82;;;;;;;13.88;81.11;98482.84;5091135;28;20374;-70
2022/10/24 06:58:59;;;;;;;13.98;9.13;;;;;;;13.92;81.05;98495.69;5063330;28;20035;-70
2022/10/24 07:01:26;;;;;;;12.95;9.65;;;;;;;13.98;81.33;98482.56;5070353;28;20482;-69
2022/10/24 07:03:52;;;;;;;15.55;10.30;;;;;;;14.03;80.58;98473.34;5068302;28;20040;-69
2022/10/24 07:06:23;;;;;;;13.07;9.02;;;;;;;14.07;80.80;98480.66;5068595;28;20382;-70
2022/10/24 07:08:56;;;;;;;14.85;9.48;;;;;;;14.12;81.24;98482.44;5080386;28;20059;-71
2022/10/24 07:11:21;;;;;;;14.98;9.40;;;;;;;14.14;81.23;98464.47;5067242;28;20032;-69
2022/10/24 07:13:47;;;;;;;14.73;10.15;;;;;;;14.20;81.10;98470.63;5090318;28;20024;-71
2022/10/24 07:16:14;;;;;;;29.05;16.65;;;;;;;14.25;81.24;98475.22;5073476;28;20033;-70
2022/10/24 07:18:39;;;;;;;15.63;10.32;;;;;;;14.31;80.73;98475.88;5068803;28;20029;-70
2022/10/24 07:21:08;;;;;;;13.15;9.10;;;;;;;14.40;80.98;98469.22;5069856;28;20043;-72
2022/10/24 07:23:34;;;;;;;14.68;10.05;;;;;;;14.43;80.80;98467.78;5069217;28;20025;-70
2022/10/24 07:26:09;;;;;;;12.25;9.32;;;;;;;14.48;80.58;98475.88;5070515;28;20496;-71
2022/10/24 07:28:36;;;;;;;13.20;9.63;;;;;;;14.54;80.70;98454.47;5073649;28;20028;-70
2022/10/24 07:31:03;;;;;;;13.15;9.85;;;;;;;14.58;80.71;98456.25;5075159;28;20046;-69
2022/10/24 07:33:28;;;;;;;13.73;10.13;;;;;;;14.64;80.52;98456.94;5071754;28;20047;-70
2022/10/24 07:35:54;;;;;;;15.18;9.35;;;;;;;14.70;80.61;98441.84;5082161;28;20416;-71
2022/10/24 07:38:19;;;;;;;13.38;9.23;;;;;;;14.76;80.36;98431.47;5085052;28;20029;-71
2022/10/24 07:40:45;;;;;;;15.07;8.85;;;;;;;14.84;80.34;98429.84;5081808;28;20050;-70
2022/10/24 07:43:10;;;;;;;15.95;9.38;;;;;;;14.90;80.27;98425.78;5070936;28;20016;-70
2022/10/24 07:45:37;;;;;;;12.75;8.32;;;;;;;14.95;80.23;98430.31;5088939;28;20040;-70
2022/10/24 07:48:05;;;;;;;12.73;8.93;;;;;;;15.01;79.90;98440.88;5055631;28;20432;-72
2022/10/24 07:50:31;;;;;;;12.95;8.95;;;;;;;15.06;79.76;98425.28;5084955;28;20047;-72
2022/10/24 07:52:56;;;;;;;13.75;8.90;;;;;;;15.12;79.57;98446.06;5039712;28;20445;-72
2022/10/24 07:55:22;;;;;;;14.73;9.70;;;;;;;15.16;79.43;98461.66;5075638;28;20039;-70
2022/10/24 07:57:47;;;;;;;14.80;8.80;;;;;;;15.23;79.25;98463.13;5068117;28;20115;-69
2022/10/24 08:00:13;;;;;;;15.35;8.77;;;;;;;15.25;78.96;98447.84;5059493;28;20062;-69
2022/10/24 08:02:39;;;;;;;11.80;8.25;;;;;;;15.30;79.40;98463.41;5064409;28;20123;-71
2022/10/24 08:05:05;;;;;;;13.38;8.98;;;;;;;15.34;79.06;98453.34;5070006;28;21024;-70
2022/10/24 08:07:31;;;;;;;11.35;8.57;;;;;;;15.37;78.79;98430.56;5068080;28;20077;-71
2022/10/24 08:09:56;;;;;;;13.02;8.90;;;;;;;15.42;78.71;98426.84;5079423;28;20028;-71
2022/10/24 08:12:21;;;;;;;11.13;8.10;;;;;;;15.43;78.91;98420.19;5053737;28;20025;-71
2022/10/24 08:14:47;;;;;;;11.20;8.27;;;;;;;15.44;78.47;98425.34;5075929;28;20028;-69
2022/10/24 08:17:12;;;;;;;13.50;8.00;;;;;;;15.45;78.44;98417.91;5069875;28;20475;-70
2022/10/24 08:19:40;;;;;;;14.68;7.40;;;;;;;15.45;77.90;98415.94;5087375;28;20031;-69
2022/10/24 08:22:06;;;;;;;13.02;8.02;;;;;;;15.43;78.47;98420.19;5048981;28;20055;-71
2022/10/24 08:24:32;;;;;;;10.40;7.35;;;;;;;15.42;78.15;98422.13;5060042;28;20081;-72
2022/10/24 08:26:58;;;;;;;11.52;8.82;;;;;;;15.41;78.03;98414.97;5064245;28;20443;-72
2022/10/24 08:29:24;;;;;;;12.55;7.72;;;;;;;15.42;78.10;98432.38;5064386;28;20033;-70
2022/10/24 08:31:55;;;;;;;12.18;7.47;;;;;;;15.41;77.79;98430.75;5064676;28;20402;-69
2022/10/24 08:34:21;;;;;;;11.20;7.05;;;;;;;15.39;77.53;98442.13;5072213;28;20106;-71
2022/10/24 08:36:49;;;;;;;10.25;7.28;;;;;;;15.39;78.01;98444.06;5069550;28;20036;-71
2022/10/24 08:39:16;;;;;;;11.50;6.82;;;;;;;15.39;77.75;98435.78;5084319;28;20051;-71
2022/10/24 08:41:46;;;;;;;11.98;7.07;;;;;;;15.41;78.11;98425.22;5073810;28;20036;-72
2022/10/24 08:44:34;;;;;;;8.75;6.65;;;;;;;15.43;77.68;98437.56;5058865;28;20038;-69
2022/10/24 08:47:02;;;;;;;11.93;7.53;;;;;;;15.49;78.18;98452.00;5078031;28;20032;-69
2022/10/24 08:49:37;;;;;;;30.38;13.93;;;;;;;15.51;77.71;98473.78;5077352;28;20044;-69
2022/10/24 08:52:13;;;;;;;10.75;7.32;;;;;;;15.55;77.61;98456.22;5049077;28;20024;-70
2022/10/24 08:54:42;;;;;;;10.50;7.30;;;;;;;15.63;77.83;98463.69;5067606;28;20040;-70
2022/10/24 08:57:19;;;;;;;10.23;6.80;;;;;;;15.69;77.88;98444.16;5068339;28;20044;-70
2022/10/24 08:59:44;;;;;;;10.93;7.82;;;;;;;15.77;77.71;98432.25;5067715;28;20131;-69
2022/10/24 09:02:10;;;;;;;13.05;8.43;;;;;;;15.85;77.41;98439.69;5067008;28;20537;-71
2022/10/24 09:04:44;;;;;;;13.13;8.52;;;;;;;15.87;77.14;98434.69;5068569;28;20090;-73
2022/10/24 09:07:18;;;;;;;11.00;8.35;;;;;;;15.88;77.08;98430.78;5068967;28;20119;-73
2022/10/24 09:09:47;;;;;;;12.75;7.60;;;;;;;15.91;76.73;98432.06;5064808;28;20112;-71
2022/10/24 09:12:18;;;;;;;13.70;7.43;;;;;;;15.93;77.06;98436.09;5053865;28;20025;-71
2022/10/24 09:14:46;;;;;;;10.98;8.00;;;;;;;15.96;76.74;98440.16;5076192;28;20086;-70
2022/10/24 09:17:23;;;;;;;11.15;7.28;;;;;;;16.00;76.85;98445.84;5090676;28;20042;-71
2022/10/24 09:19:54;;;;;;;10.73;7.30;;;;;;;16.02;76.74;98460.97;5092535;28;20027;-71
2022/10/24 09:22:23;;;;;;;11.85;7.20;;;;;;;16.06;76.60;98458.34;5092243;28;20020;-71
2022/10/24 09:25:01;;;;;;;11.98;7.70;;;;;;;16.09;76.62;98454.09;5092530;28;20026;-71
2022/10/24 09:27:30;;;;;;;10.93;8.05;;;;;;;16.10;76.09;98451.00;5073632;28;20092;-71
2022/10/24 09:29:56;;;;;;;12.35;7.90;;;;;;;16.14;76.36;98445.59;5081868;28;20039;-72
2022/10/24 09:32:26;;;;;;;11.45;8.13;;;;;;;16.17;75.65;98445.75;5084633;28;20040;-69
2022/10/24 09:34:52;;;;;;;13.98;7.57;;;;;;;16.20;76.05;98458.94;5062187;28;20036;-70
2022/10/24 09:37:32;;;;;;;10.88;7.95;;;;;;;16.27;75.76;98449.28;5078752;28;20009;-69
2022/10/24 09:40:28;;;;;;;12.43;8.25;;;;;;;16.28;75.65;98434.31;5068027;28;20116;-71
2022/10/24 09:43:16;;;;;;;10.98;7.32;;;;;;;16.32;75.71;98408.38;5066965;28;20045;-69
2022/10/24 09:45:59;;;;;;;11.57;6.88;;;;;;;16.38;75.92;98400.69;5071553;28;20084;-69
2022/10/24 09:48:46;;;;;;;10.50;7.20;;;;;;;16.42;75.44;98389.75;5071511;28;20032;-70
2022/10/24 09:51:25;;;;;;;11.68;7.00;;;;;;;16.46;75.32;98410.88;5071645;28;20059;-71
2022/10/24 09:54:06;;;;;;;12.32;7.93;;;;;;;16.48;75.18;98421.63;5071795;28;20012;-70
2022/10/24 09:56:40;;;;;;;9.63;6.55;;;;;;;16.48;75.42;98416.91;5071981;28;20020;-70
2022/10/24 09:59:34;;;;;;;11.05;6.90;;;;;;;16.50;75.30;98413.81;5071791;28;20485;-69
2022/10/24 10:02:09;;;;;;;10.80;6.50;;;;;;;16.55;75.57;98426.63;5067117;28;20029;-70
2022/10/24 10:04:36;;;;;;;10.43;6.53;;;;;;;16.59;75.25;98425.59;5070141;28;20033;-70
2022/10/24 10:07:08;;;;;;;12.90;7.00;;;;;;;16.65;75.25;98440.09;5070387;28;20391;-70
2022/10/24 10:09:40;;;;;;;12.02;6.57;;;;;;;16.65;74.91;98453.94;5069989;28;20033;-69
2022/10/24 10:12:20;;;;;;;11.38;7.25;;;;;;;16.66;74.91;98452.78;5072894;28;20028;-70
2022/10/24 10:14:45;;;;;;;;;;;;;;;16.70;74.67;98444.59;5086579;28;20103;-70
2022/10/24 10:17:22;;;;;;;9.73;7.30;;;;;;;16.69;74.65;98443.81;5090880;28;20344;-70
2022/10/24 10:19:50;;;;;;;10.68;6.95;;;;;;;16.70;74.43;98433.53;5068359;28;20035;-70
2022/10/24 10:22:28;;;;;;;13.00;8.90;;;;;;;16.74;74.76;98437.25;5071124;28;20036;-69
2022/10/24 10:24:55;;;;;;;11.25;7.07;;;;;;;16.81;74.83;98440.28;5070615;28;20025;-70
2022/10/24 10:27:26;;;;;;;9.57;6.78;;;;;;;16.89;74.65;98446.88;5071513;28;20060;-70
2022/10/24 10:30:10;;;;;;;10.85;7.43;;;;;;;16.97;74.23;98443.28;5087618;28;20052;-70
2022/10/24 10:33:06;;;;;;;9.02;5.65;;;;;;;17.06;73.94;98443.19;5075846;28;20045;-68
2022/10/24 10:35:53;;;;;;;8.57;5.32;;;;;;;17.17;73.97;98441.63;5052877;28;20056;-69
2022/10/24 10:38:40;;;;;;;8.95;5.88;;;;;;;17.28;73.49;98424.56;5071194;28;20025;-72
2022/10/24 10:41:19;;;;;;;8.27;5.53;;;;;;;17.40;73.62;98428.19;5070951;28;20068;-71
2022/10/24 10:44:26;;;;;;;7.78;5.30;;;;;;;17.52;72.25;98416.31;5053983;28;20432;-72
2022/10/24 10:47:11;;;;;;;8.38;5.20;;;;;;;17.63;72.35;98407.53;5071524;28;20028;-71
2022/10/24 10:49:39;;;;;;;8.13;5.20;;;;;;;17.70;71.58;98405.00;5086671;28;20020;-71
2022/10/24 10:52:16;;;;;;;9.35;5.40;;;;;;;17.78;71.67;98415.16;5072932;28;20115;-70
2022/10/24 10:54:47;;;;;;;7.35;5.13;;;;;;;17.88;71.58;98411.16;5070927;28;20032;-71
2022/10/24 10:57:18;;;;;;;7.97;5.10;;;;;;;17.99;72.07;98404.00;5089921;28;20040;-71
2022/10/24 11:00:25;;;;;;;8.73;5.00;;;;;;;18.09;71.56;98402.75;5089961;28;20024;-72
2022/10/24 11:03:05;;;;;;;6.53;4.72;;;;;;;18.20;71.18;98410.56;5029208;28;20109;-72
2022/10/24 11:06:09;;;;;;;7.88;5.10;;;;;;;18.27;70.90;98410.81;5071583;28;20033;-72
2022/10/24 11:08:40;;;;;;;8.15;5.10;;;;;;;18.36;70.50;98421.75;4988625;28;20034;-71
2022/10/24 11:11:13;;;;;;;8.63;4.60;;;;;;;18.39;69.82;98421.06;4972200;28;20030;-72
2022/10/24 11:14:19;;;;;;;13.90;5.07;;;;;;;18.39;69.75;98430.22;5029991;28;20048;-72
2022/10/24 11:16:45;;;;;;;7.28;4.93;;;;;;;18.45;69.54;98436.34;5056556;28;20064;-72
2022/10/24 11:19:27;;;;;;;9.05;5.30;;;;;;;18.51;69.39;98439.69;5049727;28;20028;-71
2022/10/24 11:21:56;;;;;;;7.35;5.47;;;;;;;18.54;69.03;98422.34;5069533;28;20055;-72
2022/10/24 11:24:23;;;;;;;6.80;5.35;;;;;;;18.53;69.04;98432.63;5069872;28;20103;-72
2022/10/24 11:27:00;;;;;;;8.15;4.85;;;;;;;18.57;69.48;98435.50;5069969;28;20020;-73
2022/10/24 11:29:33;;;;;;;7.15;4.82;;;;;;;18.58;68.91;98437.13;5083375;28;20529;-72
2022/10/24 11:32:14;;;;;;;8.77;5.47;;;;;;;18.59;68.65;98442.34;5088667;28;20576;-72
2022/10/24 11:34:46;;;;;;;8.30;5.10;;;;;;;18.59;67.76;98436.78;5068848;28;20021;-74
2022/10/24 11:37:34;;;;;;;9.60;5.75;;;;;;;18.57;68.53;98429.94;5086494;28;20248;-72
2022/10/24 11:40:02;;;;;;;11.68;6.50;;;;;;;18.55;68.55;98413.66;5089694;28;20036;-72